TimeEST,TemperatureF,Dew PointF,Humidity,Sea Level PressureIn,VisibilityMPH,Wind Direction,Wind SpeedMPH,Gust SpeedMPH,PrecipitationIn,Events,Conditions,WindDirDegrees,DateUTC
12:15 AM,30.2,28.4,93,30.35,10.0,SE,9.2,-,N/A,,Partly Cloudy,140,2012-11-15 05:15:00
12:35 AM,30.2,28.4,93,30.35,10.0,SE,8.1,-,N/A,,Clear,140,2012-11-15 05:35:00
12:55 AM,30.2,28.4,93,30.35,10.0,SE,8.1,-,N/A,,Clear,140,2012-11-15 05:55:00
1:15 AM,30.2,28.4,93,30.34,10.0,SE,8.1,-,N/A,,Clear,140,2012-11-15 06:15:00
1:35 AM,30.2,28.4,93,30.34,10.0,SE,6.9,-,N/A,,Clear,130,2012-11-15 06:35:00
1:55 AM,30.2,28.4,93,30.34,10.0,SE,6.9,-,N/A,,Clear,140,2012-11-15 06:55:00
2:15 AM,32.0,28.4,87,30.34,10.0,SE,10.4,-,N/A,,Clear,130,2012-11-15 07:15:00
2:35 AM,32.0,28.4,87,30.34,10.0,SE,9.2,-,N/A,,Partly Cloudy,140,2012-11-15 07:35:00
2:55 AM,33.8,28.4,81,30.33,10.0,SE,10.4,-,N/A,,Mostly Cloudy,140,2012-11-15 07:55:00
3:15 AM,33.8,28.4,81,30.33,10.0,SE,12.7,-,N/A,,Overcast,130,2012-11-15 08:15:00
3:35 AM,33.8,28.4,81,30.33,10.0,SE,10.4,-,N/A,,Overcast,140,2012-11-15 08:35:00
3:55 AM,32.0,28.4,87,30.32,10.0,SE,9.2,-,N/A,,Mostly Cloudy,140,2012-11-15 08:55:00
4:15 AM,32.0,28.4,87,30.32,10.0,SSE,8.1,-,N/A,,Scattered Clouds,150,2012-11-15 09:15:00
4:35 AM,32.0,28.4,87,30.32,10.0,SE,6.9,-,N/A,,Mostly Cloudy,140,2012-11-15 09:35:00
4:55 AM,33.8,28.4,81,30.32,10.0,SE,8.1,-,N/A,,Mostly Cloudy,140,2012-11-15 09:55:00
5:35 AM,33.8,28.4,81,30.31,10.0,SE,6.9,-,N/A,,Overcast,140,2012-11-15 10:35:00
5:55 AM,33.8,28.4,81,30.31,10.0,SSE,9.2,-,N/A,,Mostly Cloudy,150,2012-11-15 10:55:00
6:15 AM,33.8,28.4,81,30.30,10.0,SE,10.4,-,N/A,,Overcast,140,2012-11-15 11:15:00
6:35 AM,33.8,28.4,81,30.30,10.0,SSE,9.2,-,N/A,,Overcast,150,2012-11-15 11:35:00
6:55 AM,33.8,28.4,81,30.30,10.0,SE,8.1,-,N/A,,Mostly Cloudy,140,2012-11-15 11:55:00
7:15 AM,33.8,28.4,81,30.29,10.0,SSE,9.2,-,N/A,,Mostly Cloudy,150,2012-11-15 12:15:00
7:35 AM,33.8,28.4,81,30.29,10.0,SSE,9.2,-,N/A,,Overcast,150,2012-11-15 12:35:00
7:55 AM,35.6,30.2,81,30.29,10.0,SSE,6.9,-,N/A,,Overcast,160,2012-11-15 12:55:00
8:15 AM,35.6,30.2,81,30.29,10.0,SSE,6.9,-,N/A,,Overcast,150,2012-11-15 13:15:00
8:35 AM,33.8,30.2,87,30.29,10.0,SSE,8.1,-,N/A,,Mostly Cloudy,150,2012-11-15 13:35:00
8:55 AM,33.8,30.2,87,30.29,10.0,SSE,10.4,-,N/A,,Mostly Cloudy,150,2012-11-15 13:55:00
9:35 AM,35.6,30.2,81,30.29,10.0,SE,8.1,-,N/A,,Mostly Cloudy,140,2012-11-15 14:35:00
9:55 AM,37.4,32.0,81,30.29,10.0,SSE,6.9,-,N/A,,Partly Cloudy,160,2012-11-15 14:55:00
10:15 AM,39.2,33.8,81,30.28,10.0,SSE,11.5,-,N/A,,Clear,160,2012-11-15 15:15:00
10:35 AM,39.2,33.8,81,30.28,10.0,South,12.7,16.1,N/A,,Clear,170,2012-11-15 15:35:00
10:55 AM,42.8,33.8,70,30.28,10.0,South,5.8,-,N/A,,Clear,190,2012-11-15 15:55:00
11:15 AM,44.6,33.8,66,30.27,10.0,South,9.2,18.4,N/A,,Clear,180,2012-11-15 16:15:00
11:35 AM,44.6,33.8,66,30.27,10.0,South,10.4,19.6,N/A,,Scattered Clouds,180,2012-11-15 16:35:00
11:55 AM,44.6,33.8,66,30.26,10.0,SSW,9.2,16.1,N/A,,Mostly Cloudy,200,2012-11-15 16:55:00
12:15 PM,44.6,33.8,66,30.26,10.0,South,11.5,-,N/A,,Scattered Clouds,170,2012-11-15 17:15:00
12:35 PM,44.6,33.8,66,30.25,10.0,South,6.9,-,N/A,,Clear,190,2012-11-15 17:35:00
12:55 PM,44.6,33.8,66,30.24,10.0,SSW,5.8,-,N/A,,Partly Cloudy,200,2012-11-15 17:55:00
1:15 PM,44.6,33.8,66,30.24,10.0,South,6.9,16.1,N/A,,Clear,180,2012-11-15 18:15:00
1:35 PM,46.4,33.8,62,30.24,10.0,South,9.2,18.4,N/A,,Clear,180,2012-11-15 18:35:00
1:55 PM,46.4,33.8,62,30.23,10.0,South,8.1,-,N/A,,Clear,190,2012-11-15 18:55:00
2:15 PM,46.4,33.8,62,30.23,10.0,SSW,8.1,20.7,N/A,,Clear,200,2012-11-15 19:15:00
2:35 PM,46.4,35.6,66,30.23,10.0,SW,8.1,17.3,N/A,,Clear,220,2012-11-15 19:35:00
2:55 PM,46.4,35.6,66,30.22,10.0,SSW,5.8,17.3,N/A,,Scattered Clouds,210,2012-11-15 19:55:00
3:15 PM,46.4,35.6,66,30.22,10.0,SW,10.4,17.3,N/A,,Partly Cloudy,220,2012-11-15 20:15:00
3:35 PM,44.6,37.4,76,30.22,10.0,SSW,9.2,17.3,N/A,,Partly Cloudy,210,2012-11-15 20:35:00
3:55 PM,44.6,37.4,76,30.23,10.0,SW,6.9,-,N/A,,Mostly Cloudy,220,2012-11-15 20:55:00
4:15 PM,44.6,37.4,76,30.22,10.0,SW,9.2,-,N/A,,Overcast,220,2012-11-15 21:15:00
4:35 PM,44.6,37.4,76,30.23,10.0,SW,9.2,-,N/A,,Overcast,220,2012-11-15 21:35:00
4:55 PM,44.6,37.4,76,30.23,10.0,SW,6.9,-,N/A,,Overcast,220,2012-11-15 21:55:00
5:15 PM,42.8,37.4,81,30.23,10.0,SSW,5.8,-,N/A,,Mostly Cloudy,200,2012-11-15 22:15:00
5:35 PM,42.8,37.4,81,30.23,10.0,Calm,Calm,-,N/A,,Scattered Clouds,0,2012-11-15 22:35:00
5:55 PM,41.0,37.4,87,30.23,10.0,Calm,Calm,-,N/A,,Mostly Cloudy,0,2012-11-15 22:55:00
6:15 PM,41.0,37.4,87,30.24,10.0,Calm,Calm,-,N/A,,Mostly Cloudy,0,2012-11-15 23:15:00
6:35 PM,42.8,37.4,81,30.24,10.0,SSW,4.6,-,N/A,,Overcast,200,2012-11-15 23:35:00
6:55 PM,42.8,37.4,81,30.24,10.0,South,3.5,-,N/A,,Overcast,190,2012-11-15 23:55:00
7:15 PM,41.0,37.4,87,30.24,10.0,Calm,Calm,-,N/A,,Overcast,0,2012-11-16 00:15:00
7:35 PM,41.0,37.4,87,30.24,10.0,South,4.6,-,N/A,,Overcast,190,2012-11-16 00:35:00
7:55 PM,41.0,37.4,87,30.24,10.0,SSW,4.6,-,N/A,,Overcast,210,2012-11-16 00:55:00
8:15 PM,41.0,37.4,87,30.26,10.0,SW,3.5,-,N/A,,Overcast,230,2012-11-16 01:15:00
8:35 PM,42.8,39.2,87,30.27,10.0,WSW,3.5,-,N/A,,Overcast,240,2012-11-16 01:35:00
8:55 PM,42.8,39.2,87,30.27,10.0,SW,5.8,-,N/A,,Overcast,230,2012-11-16 01:55:00
9:15 PM,42.8,39.2,87,30.27,10.0,SW,3.5,-,N/A,,Overcast,220,2012-11-16 02:15:00
9:35 PM,41.0,39.2,93,30.27,10.0,WSW,4.6,-,N/A,,Scattered Clouds,240,2012-11-16 02:35:00
10:15 PM,39.2,39.2,100,30.27,10.0,WSW,5.8,-,N/A,,Mostly Cloudy,250,2012-11-16 03:15:00
10:35 PM,39.2,39.2,100,30.28,7.0,West,4.6,-,N/A,,Scattered Clouds,260,2012-11-16 03:35:00
10:55 PM,39.2,39.2,100,30.28,7.0,West,8.1,-,N/A,,Mostly Cloudy,270,2012-11-16 03:55:00
11:15 PM,39.2,39.2,100,30.28,7.0,West,4.6,-,N/A,,Mostly Cloudy,260,2012-11-16 04:15:00
11:35 PM,39.2,39.2,100,30.29,6.0,WSW,4.6,-,N/A,,Overcast,250,2012-11-16 04:35:00
11:55 PM,39.2,37.4,93,30.29,5.0,West,5.8,-,N/A,,Scattered Clouds,260,2012-11-16 04:55:00